Union, West Virginia
Current Conditions -  °F | °C
As of 1:35 AM on Friday 31 Oct 2014 (Local Time) from KLWB Reporting Station
Scattered Clouds Scattered Clouds  
Wind Chill: 30°   Ceiling: Unl
Heat Index: 30°   Visibility: 10mi
Dew Point: 28°   Wind: 0mph
Humidity: 90%   Direction: NA
Pressure: 30.02"   Gusts: NA
Location:  37.59°N, 80.54°W
Report Text: KLWB 310535Z AUTO 00000KT 10SM SCT039 M01/M02 A3002 RMK AO2 T10101024
Loading
Personal Weather Stations






























Interactive Weather Map
Tropical Storm Tracking
New forecast layout! Learn more

10-Day Weather Forecast

Advertisements
Track Severe Weather on mobile